Time;durP1;ratioP1;P1;durP2;ratioP2;P2;SDS_P1;SDS_P2;PMS_P1;PMS_P2;Temp;Humidity;BMP_temperature;BMP_pressure;BME280_temperature;BME280_humidity;BME280_pressure;Samples;Min_cycle;Max_cycle;Signal;HPM_P1;HPM_P2
2021/03/27 00:01:38;;;;;;;12.55;7.88;;;12.90;55.60;;;;;;4980731;28;20125;-63
2021/03/27 00:04:18;;;;;;;13.45;7.68;;;12.80;56.10;;;;;;4978258;28;20059;-64
2021/03/27 00:06:53;;;;;;;12.60;7.72;;;12.90;56.00;;;;;;4980004;28;20042;-64
2021/03/27 00:09:27;;;;;;;;;;;12.90;56.00;;;;;;4992245;28;20106;-64
2021/03/27 00:12:01;;;;;;;12.85;7.65;;;12.90;55.90;;;;;;4975648;28;19989;-64
2021/03/27 00:14:47;;;;;;;12.38;7.90;;;12.90;55.70;;;;;;4962501;28;20047;-64
2021/03/27 00:17:24;;;;;;;11.07;7.63;;;12.90;56.20;;;;;;4979490;28;20074;-64
2021/03/27 00:19:58;;;;;;;12.32;7.88;;;12.80;56.00;;;;;;4979036;28;20035;-64
2021/03/27 00:22:41;;;;;;;13.63;7.53;;;12.80;55.90;;;;;;4977866;28;20046;-64
2021/03/27 00:25:42;;;;;;;10.23;7.40;;;12.80;56.00;;;;;;4980095;28;20030;-64
2021/03/27 00:28:20;;;;;;;11.25;7.00;;;12.80;56.00;;;;;;4978944;28;20035;-63
2021/03/27 00:30:54;;;;;;;10.20;6.88;;;12.80;56.00;;;;;;4979508;28;20635;-64
2021/03/27 00:33:36;;;;;;;9.60;6.18;;;12.80;55.90;;;;;;4977504;28;20058;-64
2021/03/27 00:36:23;;;;;;;7.97;6.28;;;12.80;56.30;;;;;;4979666;28;20687;-64
2021/03/27 00:39:07;;;;;;;8.55;6.22;;;12.80;56.00;;;;;;4979632;28;20042;-64
2021/03/27 00:42:00;;;;;;;7.88;5.95;;;12.80;56.00;;;;;;4978701;28;20046;-64
2021/03/27 00:44:34;;;;;;;8.10;5.70;;;12.80;56.00;;;;;;4977243;28;20035;-64
2021/03/27 00:47:04;;;;;;;7.38;5.22;;;12.80;56.00;;;;;;4979576;28;20045;-64
2021/03/27 00:49:39;;;;;;;7.28;5.50;;;12.80;55.90;;;;;;4979582;28;20039;-64
2021/03/27 00:52:09;;;;;;;7.80;5.88;;;12.90;56.20;;;;;;4979101;28;20035;-64
2021/03/27 00:54:48;;;;;;;9.60;6.20;;;12.90;56.00;;;;;;4979121;28;20395;-64
2021/03/27 00:57:23;;;;;;;12.32;6.05;;;12.90;56.50;;;;;;4977204;28;20035;-64
2021/03/27 01:00:09;;;;;;;8.57;5.78;;;12.90;56.70;;;;;;4993175;28;20038;-64
2021/03/27 01:02:54;;;;;;;9.98;6.25;;;13.00;57.40;;;;;;4977114;28;20078;-64
2021/03/27 01:05:26;;;;;;;8.35;6.13;;;13.00;57.30;;;;;;4977177;28;20042;-64
2021/03/27 01:07:58;;;;;;;9.57;6.40;;;13.00;57.50;;;;;;4979281;28;20039;-64
2021/03/27 01:10:34;;;;;;;6.63;5.82;;;13.00;57.60;;;;;;4973258;28;20047;-64
2021/03/27 01:13:04;;;;;;;8.82;6.15;;;13.00;57.50;;;;;;4977861;28;20050;-63
2021/03/27 01:15:36;;;;;;;7.22;5.30;;;12.90;57.50;;;;;;4978268;28;20450;-63
2021/03/27 01:18:35;;;;;;;6.85;5.43;;;12.90;57.50;;;;;;4978128;28;20034;-64
2021/03/27 01:21:06;;;;;;;7.03;5.05;;;12.90;57.90;;;;;;4978259;28;20034;-64
2021/03/27 01:23:35;;;;;;;7.50;4.90;;;12.80;57.60;;;;;;4978877;28;20122;-64
2021/03/27 01:26:08;;;;;;;5.28;4.65;;;12.80;57.90;;;;;;4978819;28;20039;-63
2021/03/27 01:29:03;;;;;;;6.57;4.43;;;12.80;58.60;;;;;;4976462;28;20083;-64
2021/03/27 01:31:47;;;;;;;7.80;4.60;;;12.80;59.70;;;;;;4977950;28;20046;-63
2021/03/27 01:34:56;;;;;;;5.07;3.95;;;12.70;59.70;;;;;;4975659;28;20042;-64
2021/03/27 01:37:32;;;;;;;5.28;4.50;;;12.70;60.40;;;;;;4977241;28;20035;-64
2021/03/27 01:40:21;;;;;;;5.05;4.15;;;12.60;60.30;;;;;;4979572;28;20043;-63
2021/03/27 01:43:00;;;;;;;7.07;4.60;;;12.60;61.00;;;;;;4979206;28;20057;-63
2021/03/27 01:46:03;;;;;;;7.53;4.82;;;12.50;61.50;;;;;;4979050;28;20498;-63
2021/03/27 01:48:39;;;;;;;8.77;4.80;;;12.40;62.70;;;;;;4978873;28;20453;-63
2021/03/27 01:51:49;;;;;;;9.07;4.95;;;12.40;61.90;;;;;;4977093;28;20022;-64
2021/03/27 01:54:37;;;;;;;8.63;5.00;;;12.30;63.60;;;;;;4960168;28;20063;-63
2021/03/27 01:57:27;;;;;;;5.50;4.75;;;12.30;62.90;;;;;;4978178;28;20035;-63
2021/03/27 02:00:13;;;;;;;5.47;4.47;;;12.20;62.90;;;;;;4975495;28;20118;-64
2021/03/27 02:02:59;;;;;;;6.82;4.63;;;12.20;63.90;;;;;;4971828;28;20039;-64
2021/03/27 02:05:56;;;;;;;5.80;4.25;;;12.10;65.10;;;;;;4978348;28;20119;-64
2021/03/27 02:08:33;;;;;;;5.80;4.32;;;12.10;65.00;;;;;;4977052;28;20410;-64
2021/03/27 02:11:18;;;;;;;5.82;4.43;;;12.00;63.80;;;;;;4972937;28;20070;-63
2021/03/27 02:14:08;;;;;;;6.75;4.35;;;12.00;65.60;;;;;;4978215;28;20063;-64
2021/03/27 02:16:46;;;;;;;4.85;3.67;;;12.00;66.60;;;;;;4980116;28;20521;-64
2021/03/27 02:19:35;;;;;;;5.70;4.00;;;11.90;65.10;;;;;;4982020;28;20042;-64
2021/03/27 02:22:13;;;;;;;4.40;3.58;;;11.90;65.00;;;;;;4979433;28;20065;-64
2021/03/27 02:25:09;;;;;;;4.22;3.40;;;11.80;65.20;;;;;;4974121;28;20406;-64
2021/03/27 02:28:04;;;;;;;3.65;3.35;;;11.80;66.20;;;;;;4993426;28;20153;-64
2021/03/27 02:30:49;;;;;;;3.75;3.05;;;11.80;66.20;;;;;;4982056;28;20071;-64
2021/03/27 02:33:39;;;;;;;;;;;11.70;67.50;;;;;;4978068;28;20035;-64
2021/03/27 02:36:31;;;;;;;3.60;3.13;;;11.70;68.80;;;;;;4978367;28;19914;-64
2021/03/27 02:39:16;;;;;;;4.95;3.50;;;11.70;68.60;;;;;;4979012;28;20031;-64
2021/03/27 02:42:01;;;;;;;3.33;2.85;;;11.60;68.60;;;;;;4981015;28;20037;-64
2021/03/27 02:44:37;;;;;;;;;;;11.60;68.50;;;;;;4980219;28;20039;-64
2021/03/27 02:47:36;;;;;;;3.83;3.17;;;11.60;68.80;;;;;;4981221;28;19922;-64
2021/03/27 02:50:07;;;;;;;4.40;3.22;;;11.50;69.50;;;;;;4978880;28;20033;-64
2021/03/27 02:52:59;;;;;;;4.10;3.60;;;11.50;68.20;;;;;;4979838;28;20216;-64
2021/03/27 02:55:53;;;;;;;4.18;3.08;;;11.50;69.20;;;;;;4972107;28;20153;-64
2021/03/27 02:58:28;;;;;;;4.05;2.85;;;11.40;69.00;;;;;;4980343;28;20550;-64
2021/03/27 03:01:07;;;;;;;2.85;2.65;;;11.40;68.70;;;;;;4979697;28;20049;-64
2021/03/27 03:03:53;;;;;;;3.25;2.92;;;11.30;68.90;;;;;;4980979;28;20105;-64
2021/03/27 03:07:00;;;;;;;3.22;2.92;;;11.30;70.80;;;;;;4976756;28;20023;-64
2021/03/27 03:09:33;;;;;;;3.47;3.00;;;11.20;71.30;;;;;;4980812;28;20034;-64
2021/03/27 03:12:01;;;;;;;3.20;2.88;;;11.20;70.60;;;;;;4973507;28;20117;-64
2021/03/27 03:14:46;;;;;;;3.72;3.13;;;11.20;69.70;;;;;;4980116;28;20034;-64
2021/03/27 03:17:39;;;;;;;3.13;2.83;;;11.20;72.20;;;;;;4979287;28;20031;-64
2021/03/27 03:20:25;;;;;;;5.90;2.97;;;11.10;71.60;;;;;;4979790;28;20038;-64
2021/03/27 03:23:05;;;;;;;4.25;2.97;;;11.10;70.10;;;;;;4993882;28;20037;-64
2021/03/27 03:25:38;;;;;;;3.63;2.60;;;11.10;70.90;;;;;;4980957;28;20041;-64
2021/03/27 03:28:21;;;;;;;3.17;2.58;;;11.00;69.80;;;;;;4976027;28;20039;-64
2021/03/27 03:31:10;;;;;;;3.05;2.40;;;11.00;71.40;;;;;;4979336;28;20030;-64
2021/03/27 03:33:56;;;;;;;2.67;2.45;;;10.90;71.50;;;;;;4981320;28;20400;-64
2021/03/27 03:36:43;;;;;;;;;;;10.90;71.60;;;;;;4980060;28;20047;-65
2021/03/27 03:39:28;;;;;;;2.60;2.40;;;10.90;72.00;;;;;;4979742;28;19939;-65
2021/03/27 03:42:27;;;;;;;2.63;2.35;;;10.90;70.90;;;;;;4980327;28;20045;-64
2021/03/27 03:45:16;;;;;;;2.40;2.20;;;10.90;71.70;;;;;;4978652;28;20027;-64
2021/03/27 03:48:03;;;;;;;2.75;2.30;;;10.80;72.10;;;;;;4979870;28;20410;-64
2021/03/27 03:50:56;;;;;;;2.47;2.25;;;10.80;71.20;;;;;;4975044;28;20027;-64
2021/03/27 03:53:33;;;;;;;2.97;2.47;;;10.80;72.40;;;;;;4979749;28;20035;-64
2021/03/27 03:56:17;;;;;;;2.35;2.08;;;10.80;72.00;;;;;;4979255;28;20147;-64
2021/03/27 03:59:22;;;;;;;2.22;2.03;;;10.80;72.90;;;;;;4979429;28;20405;-64
2021/03/27 04:02:00;;;;;;;2.95;2.15;;;10.80;72.90;;;;;;4978926;28;20043;-66
2021/03/27 04:04:48;;;;;;;2.03;1.80;;;10.70;72.70;;;;;;4979170;28;20069;-64
2021/03/27 04:07:30;;;;;;;1.90;1.73;;;10.80;73.90;;;;;;4978704;28;20034;-64
2021/03/27 04:10:09;;;;;;;2.38;2.00;;;10.70;73.30;;;;;;4980202;28;20051;-64
2021/03/27 04:12:40;;;;;;;2.33;1.80;;;10.70;74.20;;;;;;4975462;28;20035;-64
2021/03/27 04:15:37;;;;;;;2.50;1.85;;;10.70;73.70;;;;;;4979095;28;20470;-64
2021/03/27 04:18:37;;;;;;;1.60;1.50;;;10.70;74.50;;;;;;4977731;28;20038;-63
2021/03/27 04:21:08;;;;;;;1.60;1.50;;;10.70;74.70;;;;;;4979727;28;20031;-64
2021/03/27 04:23:45;;;;;;;1.45;1.35;;;10.70;73.50;;;;;;4978673;28;20031;-64
2021/03/27 04:26:22;;;;;;;1.92;1.67;;;10.70;73.70;;;;;;4977564;28;20030;-65
2021/03/27 04:28:58;;;;;;;2.83;1.60;;;10.60;73.80;;;;;;4992051;28;20038;-64
2021/03/27 04:31:45;;;;;;;2.63;1.35;;;10.60;74.00;;;;;;4979419;28;20122;-64
2021/03/27 04:34:32;;;;;;;1.60;1.50;;;10.60;74.50;;;;;;4979190;28;20030;-64
2021/03/27 04:37:14;;;;;;;2.97;1.50;;;10.60;74.60;;;;;;4978258;28;20034;-64
2021/03/27 04:39:49;;;;;;;2.42;1.60;;;10.60;74.60;;;;;;4978243;28;20046;-64
2021/03/27 04:42:18;;;;;;;;;;;10.60;73.70;;;;;;4978366;28;20050;-65
2021/03/27 04:44:55;;;;;;;1.40;1.30;;;10.60;74.20;;;;;;4978151;28;19925;-64
2021/03/27 04:47:32;;;;;;;1.50;1.40;;;10.50;73.30;;;;;;4978661;28;20114;-64
2021/03/27 04:50:20;;;;;;;1.70;1.33;;;10.50;73.30;;;;;;4980031;28;20042;-64
2021/03/27 04:52:57;;;;;;;1.70;1.60;;;10.50;73.50;;;;;;4977264;28;20038;-64
2021/03/27 04:55:42;;;;;;;1.48;1.38;;;10.50;73.10;;;;;;4977881;28;20034;-64
2021/03/27 04:58:13;;;;;;;1.80;1.50;;;10.50;73.50;;;;;;4977691;28;20030;-64
2021/03/27 05:00:54;;;;;;;2.88;1.50;;;10.50;73.10;;;;;;4978626;28;20030;-64
2021/03/27 05:03:37;;;;;;;2.60;1.50;;;10.50;73.30;;;;;;4978223;28;20081;-65
2021/03/27 05:06:14;;;;;;;2.10;1.50;;;10.50;74.00;;;;;;4978310;28;20559;-64
2021/03/27 05:09:20;;;;;;;1.70;1.60;;;10.30;72.90;;;;;;4978576;28;20512;-64
2021/03/27 05:11:53;;;;;;;2.60;1.43;;;10.40;73.60;;;;;;4985724;28;20383;-64
2021/03/27 05:14:33;;;;;;;6.13;4.40;;;10.40;72.50;;;;;;4978957;28;20287;-64
2021/03/27 05:17:26;;;;;;;16.95;7.18;;;10.40;73.30;;;;;;4976681;28;20031;-64
2021/03/27 05:20:01;;;;;;;8.73;4.88;;;10.40;73.70;;;;;;4977820;28;20038;-64
2021/03/27 05:22:37;;;;;;;14.07;6.05;;;10.40;73.00;;;;;;4976765;28;20453;-64
2021/03/27 05:25:35;;;;;;;7.78;4.40;;;10.40;73.20;;;;;;4978329;28;20122;-64
2021/03/27 05:28:39;;;;;;;2.38;2.00;;;10.40;73.50;;;;;;4976935;28;20030;-64
2021/03/27 05:31:20;;;;;;;1.90;1.80;;;10.40;73.90;;;;;;4993279;28;20398;-65
2021/03/27 05:34:08;;;;;;;2.13;1.63;;;10.40;72.90;;;;;;4977833;28;20062;-65
2021/03/27 05:36:45;;;;;;;2.33;2.13;;;10.30;74.20;;;;;;4977124;28;20065;-64
2021/03/27 05:39:38;;;;;;;3.30;2.05;;;10.30;73.30;;;;;;4978268;28;20527;-65
2021/03/27 05:42:45;;;;;;;3.72;1.00;;;10.30;74.90;;;;;;4976929;28;20062;-65
2021/03/27 05:45:51;;;;;;;1.67;0.90;;;10.20;73.40;;;;;;4977796;28;20023;-64
2021/03/27 05:48:46;;;;;;;2.97;0.60;;;10.10;72.50;;;;;;4978526;28;20030;-64
2021/03/27 05:51:31;;;;;;;;;;;10.00;71.80;;;;;;4975569;28;20038;-64
2021/03/27 05:54:33;;;;;;;0.65;0.30;;;9.80;74.10;;;;;;4977697;28;20007;-64
2021/03/27 05:57:27;;;;;;;0.32;0.30;;;9.50;72.70;;;;;;4974606;28;20506;-64
2021/03/27 06:00:15;;;;;;;1.40;1.00;;;9.30;73.50;;;;;;4977638;28;20046;-64
2021/03/27 06:02:58;;;;;;;1.30;1.10;;;9.20;73.10;;;;;;4976671;28;20405;-64
2021/03/27 06:05:56;;;;;;;2.97;1.48;;;9.00;73.80;;;;;;4977875;28;20039;-64
2021/03/27 06:08:41;;;;;;;1.33;0.68;;;9.00;74.40;;;;;;4975012;28;20054;-64
2021/03/27 06:11:30;;;;;;;0.70;0.70;;;8.90;74.40;;;;;;4972496;28;20113;-64
2021/03/27 06:14:14;;;;;;;2.13;1.40;;;8.80;73.60;;;;;;4978197;28;20035;-64
2021/03/27 06:17:25;;;;;;;1.85;0.90;;;8.80;73.70;;;;;;4977917;28;20041;-64
2021/03/27 06:20:11;;;;;;;0.95;0.82;;;8.80;73.70;;;;;;4977369;28;20073;-64
2021/03/27 06:22:39;;;;;;;0.90;0.50;;;8.80;72.60;;;;;;4975688;28;20038;-64
2021/03/27 06:25:41;;;;;;;0.80;0.40;;;8.70;72.00;;;;;;4977141;28;20031;-65
2021/03/27 06:28:21;;;;;;;1.20;0.30;;;8.70;72.00;;;;;;4976919;28;20027;-64
2021/03/27 06:31:25;;;;;;;1.50;0.55;;;8.60;70.80;;;;;;4976132;28;20034;-64
2021/03/27 06:34:18;;;;;;;0.65;0.50;;;8.60;70.40;;;;;;4974814;28;20026;-64
2021/03/27 06:37:11;;;;;;;0.68;0.35;;;8.50;70.60;;;;;;4976296;28;20035;-65
2021/03/27 06:40:17;;;;;;;0.60;0.40;;;8.50;70.20;;;;;;4973463;28;20027;-64
2021/03/27 06:43:18;;;;;;;0.70;0.38;;;8.40;71.30;;;;;;4953097;28;20045;-64
2021/03/27 06:46:28;;;;;;;0.47;0.35;;;8.40;71.10;;;;;;4951096;28;20062;-64
2021/03/27 06:49:27;;;;;;;0.35;0.30;;;8.40;70.60;;;;;;4975835;28;20042;-64
2021/03/27 06:52:19;;;;;;;1.27;0.30;;;8.30;70.40;;;;;;4976391;28;20510;-64
2021/03/27 06:54:54;;;;;;;1.05;0.50;;;8.30;70.70;;;;;;4974324;28;20042;-63
2021/03/27 06:58:07;;;;;;;0.55;0.40;;;8.20;70.60;;;;;;4974000;28;20035;-64
2021/03/27 07:00:51;;;;;;;1.05;0.40;;;8.20;71.30;;;;;;4956566;28;20022;-59
2021/03/27 07:04:09;;;;;;;1.30;0.50;;;8.20;70.70;;;;;;4961873;28;20959;-64
2021/03/27 07:07:04;;;;;;;0.77;0.40;;;8.20;70.60;;;;;;4981798;28;20498;-65
2021/03/27 07:09:41;;;;;;;0.40;0.40;;;8.10;70.20;;;;;;4964901;28;20026;-65
2021/03/27 07:12:18;;;;;;;0.50;0.40;;;8.10;70.00;;;;;;4973176;28;20035;-65
2021/03/27 07:14:48;;;;;;;1.48;0.45;;;8.10;70.00;;;;;;4974964;28;20081;-65
2021/03/27 07:17:39;;;;;;;1.27;0.47;;;8.10;69.90;;;;;;4970251;28;20137;-65
2021/03/27 07:20:46;;;;;;;1.35;0.40;;;8.10;70.50;;;;;;4974508;28;20035;-65
2021/03/27 07:23:52;;;;;;;0.93;0.47;;;8.10;69.90;;;;;;4977833;28;20434;-65
2021/03/27 07:26:51;;;;;;;4.07;0.40;;;8.10;69.30;;;;;;4964427;28;20034;-65
2021/03/27 07:30:03;;;;;;;0.95;0.43;;;8.10;69.20;;;;;;4978813;28;20073;-65
2021/03/27 07:33:03;;;;;;;1.55;0.30;;;8.10;67.80;;;;;;4959992;28;20030;-65
2021/03/27 07:36:18;;;;;;;1.13;0.40;;;8.10;66.70;;;;;;4972394;28;20126;-65
2021/03/27 07:38:59;;;;;;;1.17;0.30;;;8.00;65.50;;;;;;4977982;28;20035;-65
2021/03/27 07:41:55;;;;;;;1.08;0.43;;;8.00;65.50;;;;;;4975675;28;20034;-65
2021/03/27 07:44:44;;;;;;;1.17;0.30;;;7.90;64.90;;;;;;4979067;28;20035;-66
2021/03/27 07:47:29;;;;;;;1.50;0.30;;;7.90;65.40;;;;;;4977613;28;20054;-70
2021/03/27 07:53:01;;;;;;;1.23;0.52;;;7.80;65.00;;;;;;5319566;22;20042;-65
2021/03/27 07:55:39;;;;;;;1.45;0.30;;;7.80;65.00;;;;;;4980930;28;20039;-65
2021/03/27 07:58:26;;;;;;;1.73;0.40;;;7.80;65.90;;;;;;4986695;28;20409;-65
2021/03/27 08:01:32;;;;;;;1.17;0.70;;;7.80;65.50;;;;;;4988064;28;20030;-65
2021/03/27 08:04:19;;;;;;;2.72;0.60;;;7.80;65.90;;;;;;5006827;28;20619;-65
2021/03/27 08:06:44;;;;;;;2.03;0.55;;;7.80;65.90;;;;;;5005132;28;20046;-66
2021/03/27 08:09:40;;;;;;;1.38;0.45;;;7.80;66.20;;;;;;5004440;28;20038;-64
2021/03/27 08:12:37;;;;;;;0.85;0.40;;;7.80;66.40;;;;;;5003599;28;20034;-65
2021/03/27 08:15:28;;;;;;;1.13;0.40;;;7.90;66.20;;;;;;5004989;28;20464;-64
2021/03/27 08:18:17;;;;;;;0.85;0.50;;;7.90;65.80;;;;;;5004998;28;20033;-64
2021/03/27 08:21:00;;;;;;;2.92;0.40;;;7.90;65.50;;;;;;5012134;28;20042;-64
2021/03/27 08:23:40;;;;;;;4.38;0.47;;;8.00;65.30;;;;;;5005198;28;20061;-64
2021/03/27 08:26:17;;;;;;;1.33;0.45;;;8.00;65.50;;;;;;5007281;28;20026;-64
2021/03/27 08:29:07;;;;;;;2.42;0.47;;;8.00;65.40;;;;;;5005345;28;20493;-64
2021/03/27 08:32:04;;;;;;;1.63;0.50;;;8.00;65.50;;;;;;5006970;28;20049;-65
2021/03/27 08:34:57;;;;;;;1.13;0.50;;;8.00;64.90;;;;;;4985188;28;20133;-64
2021/03/27 08:37:45;;;;;;;0.55;0.30;;;8.10;64.70;;;;;;4999445;28;20042;-64
2021/03/27 08:40:27;;;;;;;1.42;0.65;;;8.10;65.30;;;;;;4997212;28;20029;-65
2021/03/27 08:43:15;;;;;;;1.30;0.50;;;8.20;65.20;;;;;;5006540;28;20567;-64
2021/03/27 08:45:59;;;;;;;1.13;0.55;;;8.30;65.20;;;;;;5006364;28;20037;-64
2021/03/27 08:48:52;;;;;;;2.10;0.80;;;8.30;64.80;;;;;;5006486;28;20044;-64
2021/03/27 08:51:21;;;;;;;0.90;0.60;;;8.40;64.60;;;;;;5006252;28;20092;-64
2021/03/27 08:54:01;;;;;;;1.30;0.75;;;8.40;64.80;;;;;;5007077;28;20036;-65
2021/03/27 08:56:46;;;;;;;1.85;0.55;;;8.60;64.80;;;;;;5006723;28;20045;-64
2021/03/27 08:59:35;;;;;;;0.60;0.45;;;8.70;65.70;;;;;;5003822;28;20404;-64
2021/03/27 09:02:30;;;;;;;1.92;0.63;;;8.70;65.00;;;;;;5007343;28;20038;-64
2021/03/27 09:05:33;;;;;;;0.95;0.80;;;8.90;64.50;;;;;;5005420;28;20030;-64
2021/03/27 09:08:24;;;;;;;1.88;0.50;;;9.00;64.30;;;;;;5005370;28;20481;-64
2021/03/27 09:11:17;;;;;;;5.40;1.13;;;9.10;64.00;;;;;;4997940;28;20464;-65
2021/03/27 09:13:51;;;;;;;1.33;0.40;;;9.20;63.50;;;;;;5005850;28;20048;-64
2021/03/27 09:16:57;;;;;;;1.42;0.80;;;9.30;62.70;;;;;;5006118;28;20034;-65
2021/03/27 09:19:44;;;;;;;1.98;0.95;;;9.30;62.60;;;;;;5005278;28;20372;-65
2021/03/27 09:22:28;;;;;;;2.45;0.88;;;9.50;62.90;;;;;;5006324;28;20523;-64
2021/03/27 09:25:19;;;;;;;1.13;0.50;;;9.50;62.70;;;;;;5004163;28;20033;-64
2021/03/27 09:28:00;;;;;;;3.85;1.05;;;9.60;62.10;;;;;;5007263;28;20022;-64
2021/03/27 09:30:55;;;;;;;2.67;0.40;;;9.70;62.20;;;;;;5004799;28;20034;-64
2021/03/27 09:33:32;;;;;;;2.42;0.40;;;9.80;60.60;;;;;;5002853;28;20034;-64
2021/03/27 09:36:27;;;;;;;2.78;1.27;;;9.90;60.30;;;;;;5005205;28;20030;-64
2021/03/27 09:39:10;;;;;;;1.90;0.90;;;9.90;60.10;;;;;;5004793;28;20034;-64
2021/03/27 09:41:45;;;;;;;1.67;1.13;;;10.00;60.30;;;;;;4996859;28;20092;-64
2021/03/27 09:44:33;;;;;;;;;;;10.00;60.80;;;;;;5003964;28;20037;-64
2021/03/27 09:47:14;;;;;;;1.08;0.68;;;10.10;60.30;;;;;;5003730;28;19913;-64
2021/03/27 09:50:12;;;;;;;1.05;0.38;;;10.10;59.50;;;;;;5003317;28;20492;-65
2021/03/27 09:53:17;;;;;;;2.72;0.47;;;10.20;57.20;;;;;;5005448;28;20034;-64
2021/03/27 09:56:01;;;;;;;1.20;0.85;;;10.20;56.50;;;;;;5004014;28;20038;-64
2021/03/27 09:58:43;;;;;;;2.53;0.50;;;10.30;56.70;;;;;;5004094;28;20038;-64
2021/03/27 10:01:30;;;;;;;3.60;0.52;;;10.40;53.70;;;;;;5005165;28;20236;-64
2021/03/27 10:04:23;;;;;;;1.13;0.28;;;10.40;55.00;;;;;;5019571;28;20030;-65
2021/03/27 10:07:13;;;;;;;1.00;0.50;;;10.50;52.50;;;;;;5001905;28;20030;-64
2021/03/27 10:10:05;;;;;;;0.85;0.50;;;10.60;52.80;;;;;;5019761;28;20605;-65
2021/03/27 10:12:58;;;;;;;0.85;0.68;;;10.60;53.00;;;;;;5003023;28;20543;-64
2021/03/27 10:15:40;;;;;;;2.83;0.70;;;10.70;53.00;;;;;;5002208;28;20033;-65
2021/03/27 10:18:12;;;;;;;3.83;1.98;;;10.70;53.40;;;;;;5002654;28;20034;-64
2021/03/27 10:20:50;;;;;;;1.38;1.08;;;10.80;53.20;;;;;;5002318;28;20394;-64
2021/03/27 10:23:52;;;;;;;2.05;0.80;;;10.90;53.70;;;;;;5005293;28;20090;-65
2021/03/27 10:26:29;;;;;;;0.63;0.30;;;10.90;52.00;;;;;;5002975;28;20026;-64
2021/03/27 10:29:41;;;;;;;2.33;0.40;;;11.00;52.20;;;;;;5003194;28;20041;-64
2021/03/27 10:33:01;;;;;;;0.60;0.40;;;11.10;52.20;;;;;;4998662;28;20393;-64
2021/03/27 10:35:50;;;;;;;1.83;0.50;;;11.10;50.80;;;;;;4996251;28;20584;-64
2021/03/27 10:38:42;;;;;;;1.10;0.40;;;11.20;51.90;;;;;;5008571;28;20041;-64
2021/03/27 10:41:32;;;;;;;1.65;0.50;;;11.30;49.80;;;;;;5002368;28;20038;-64
2021/03/27 10:44:23;;;;;;;1.98;0.73;;;11.30;51.00;;;;;;5007787;28;20046;-64
2021/03/27 10:47:10;;;;;;;0.90;0.30;;;11.40;51.00;;;;;;5008020;28;20076;-64
2021/03/27 10:49:51;;;;;;;1.70;0.63;;;11.50;51.50;;;;;;5006495;28;20063;-65
2021/03/27 10:52:40;;;;;;;4.88;0.60;;;11.60;51.10;;;;;;5007581;28;20064;-64
2021/03/27 10:55:23;;;;;;;2.10;0.50;;;11.60;51.30;;;;;;5005952;28;20045;-64
2021/03/27 10:58:13;;;;;;;0.90;0.47;;;11.60;48.20;;;;;;5016687;28;20038;-64
2021/03/27 11:01:12;;;;;;;0.82;0.30;;;11.60;47.80;;;;;;4999159;28;20042;-64
2021/03/27 11:03:58;;;;;;;1.02;0.40;;;11.50;48.70;;;;;;5015646;28;20038;-64
2021/03/27 11:06:42;;;;;;;0.82;0.50;;;11.40;47.80;;;;;;4997541;28;20137;-63
2021/03/27 11:09:55;;;;;;;0.77;0.50;;;11.40;48.10;;;;;;5007077;28;20061;-64
2021/03/27 11:12:49;;;;;;;0.88;0.40;;;11.40;47.40;;;;;;4990743;28;20497;-64
2021/03/27 11:15:54;;;;;;;1.08;0.50;;;11.40;46.70;;;;;;5006379;28;20030;-64
2021/03/27 11:19:02;;;;;;;1.27;0.50;;;11.40;47.40;;;;;;5009911;28;20524;-63
2021/03/27 11:21:45;;;;;;;0.50;0.40;;;11.50;48.20;;;;;;5007266;28;20125;-64
2021/03/27 11:24:29;;;;;;;2.35;0.50;;;11.50;48.80;;;;;;5008396;28;20149;-64
2021/03/27 11:27:22;;;;;;;0.77;0.50;;;11.60;48.20;;;;;;5008528;28;20030;-64
2021/03/27 11:30:12;;;;;;;0.88;0.30;;;11.70;48.40;;;;;;5007322;28;20433;-63
2021/03/27 11:32:47;;;;;;;1.55;0.65;;;11.80;49.10;;;;;;5009169;28;20046;-64
2021/03/27 11:35:29;;;;;;;1.77;0.50;;;11.90;46.60;;;;;;5009161;28;20034;-64
2021/03/27 11:38:09;;;;;;;1.55;0.55;;;12.00;47.30;;;;;;5006980;28;20129;-64
2021/03/27 11:40:39;;;;;;;1.10;0.40;;;12.10;46.90;;;;;;5007676;28;20037;-63
2021/03/27 11:43:32;;;;;;;1.85;0.30;;;12.10;47.40;;;;;;5006688;28;20048;-64
2021/03/27 11:46:09;;;;;;;2.15;0.50;;;12.20;45.50;;;;;;5008614;28;20074;-63
2021/03/27 11:48:53;;;;;;;0.93;0.30;;;12.30;44.70;;;;;;5008321;28;20496;-64
2021/03/27 11:51:48;;;;;;;0.80;0.30;;;12.30;44.30;;;;;;5007873;28;20042;-64
2021/03/27 11:54:46;;;;;;;1.65;0.30;;;12.30;42.40;;;;;;5006481;28;20037;-64
2021/03/27 11:57:30;;;;;;;0.22;0.20;;;12.40;43.10;;;;;;4994924;28;20026;-63
2021/03/27 12:03:19;;;;;;;1.65;0.20;;;12.40;44.90;;;;;;4992569;28;20107;-64
2021/03/27 12:05:59;;;;;;;2.20;0.30;;;12.50;42.90;;;;;;4997356;28;20038;-64
2021/03/27 12:08:39;;;;;;;0.90;0.40;;;12.50;42.60;;;;;;4995295;28;20077;-64
2021/03/27 12:11:14;;;;;;;1.42;0.22;;;12.50;41.20;;;;;;4992986;28;20160;-64
2021/03/27 12:14:10;;;;;;;1.95;0.43;;;12.60;41.60;;;;;;5010084;28;20440;-64
2021/03/27 12:16:38;;;;;;;0.50;0.30;;;12.60;42.80;;;;;;4989861;28;20034;-64
2021/03/27 12:19:28;;;;;;;0.60;0.30;;;12.60;42.20;;;;;;4986816;28;20091;-64
2021/03/27 12:22:34;;;;;;;0.75;0.45;;;12.50;43.00;;;;;;4992707;28;20080;-64
2021/03/27 12:25:18;;;;;;;2.25;0.57;;;12.50;42.90;;;;;;4978686;28;20163;-64
2021/03/27 12:28:04;;;;;;;1.90;0.30;;;12.60;42.60;;;;;;4987971;28;20034;-64
2021/03/27 12:30:50;;;;;;;1.00;0.30;;;12.60;42.80;;;;;;4990014;28;20029;-64
2021/03/27 12:33:47;;;;;;;1.15;0.30;;;12.60;39.10;;;;;;4990620;28;20030;-64
2021/03/27 12:36:27;;;;;;;1.42;0.40;;;12.60;40.20;;;;;;4992575;28;20035;-64
2021/03/27 12:39:23;;;;;;;2.10;0.32;;;12.60;41.10;;;;;;4989120;28;20574;-64
2021/03/27 12:42:06;;;;;;;0.88;0.30;;;12.60;42.00;;;;;;4992243;28;20038;-64
2021/03/27 12:44:53;;;;;;;2.30;0.45;;;12.60;41.90;;;;;;4990393;28;20053;-64
2021/03/27 12:47:39;;;;;;;2.60;0.40;;;12.60;41.10;;;;;;4987285;28;20290;-64
2021/03/27 12:50:30;;;;;;;2.20;0.40;;;12.60;40.80;;;;;;4990544;28;20031;-64
2021/03/27 12:53:27;;;;;;;1.48;0.52;;;12.50;40.00;;;;;;4995163;28;20081;-64
2021/03/27 12:56:14;;;;;;;1.35;0.47;;;12.50;41.30;;;;;;5002939;28;20026;-64
2021/03/27 12:58:58;;;;;;;1.15;0.40;;;12.50;41.00;;;;;;5006109;28;20080;-64
2021/03/27 13:01:32;;;;;;;1.08;0.35;;;12.50;41.50;;;;;;5005662;28;20568;-64
2021/03/27 13:04:18;;;;;;;1.60;0.35;;;12.50;41.70;;;;;;5008427;28;20037;-64
2021/03/27 13:07:15;;;;;;;0.95;0.50;;;12.50;42.50;;;;;;5006460;28;20409;-64
2021/03/27 13:10:07;;;;;;;2.03;0.40;;;12.50;42.00;;;;;;5003734;28;20034;-64
2021/03/27 13:12:59;;;;;;;0.95;0.47;;;12.60;40.20;;;;;;4996605;28;20185;-64
2021/03/27 13:15:54;;;;;;;1.00;0.40;;;12.60;39.80;;;;;;5007862;28;20113;-64
2021/03/27 13:19:03;;;;;;;1.30;0.40;;;12.60;40.90;;;;;;4989387;28;20041;-64
2021/03/27 13:21:52;;;;;;;1.50;0.55;;;12.70;39.30;;;;;;4950075;28;20031;-64
2021/03/27 13:24:44;;;;;;;0.82;0.35;;;12.70;39.00;;;;;;5007771;28;20025;-64
2021/03/27 13:27:19;;;;;;;0.70;0.32;;;12.70;38.90;;;;;;5006155;28;20511;-64
2021/03/27 13:29:47;;;;;;;1.27;0.30;;;12.70;40.70;;;;;;5007971;28;20496;-64
2021/03/27 13:32:18;;;;;;;0.82;0.55;;;12.70;41.00;;;;;;5005950;28;20034;-64
2021/03/27 13:35:05;;;;;;;1.55;0.70;;;12.80;41.00;;;;;;5007123;28;20042;-64
2021/03/27 13:37:40;;;;;;;2.15;0.80;;;12.80;40.40;;;;;;5006667;28;20042;-64
2021/03/27 13:40:23;;;;;;;0.85;0.50;;;12.80;39.10;;;;;;5007595;28;20040;-64
2021/03/27 13:43:07;;;;;;;1.60;0.35;;;12.70;39.60;;;;;;5007254;28;20084;-64
2021/03/27 13:46:10;;;;;;;0.75;0.32;;;12.80;40.00;;;;;;5007565;28;20037;-64
2021/03/27 13:49:19;;;;;;;2.33;0.50;;;12.80;38.10;;;;;;5006738;28;20459;-64
2021/03/27 13:51:51;;;;;;;0.57;0.30;;;12.80;39.10;;;;;;4996384;28;20030;-64
2021/03/27 13:54:49;;;;;;;1.05;0.55;;;12.70;39.70;;;;;;5007530;28;20187;-64
2021/03/27 13:57:30;;;;;;;0.90;0.35;;;12.70;39.70;;;;;;5005043;28;20030;-63
2021/03/27 14:00:05;;;;;;;2.15;0.45;;;12.70;40.00;;;;;;5004565;28;20654;-64
2021/03/27 14:02:46;;;;;;;1.00;0.30;;;12.70;38.90;;;;;;5003377;28;20261;-63
2021/03/27 14:05:22;;;;;;;1.50;0.28;;;12.70;39.60;;;;;;5005132;28;20396;-64
2021/03/27 14:07:58;;;;;;;2.28;0.40;;;12.70;40.40;;;;;;4998539;28;20038;-64
2021/03/27 14:10:51;;;;;;;1.65;0.45;;;12.70;39.60;;;;;;5004645;28;20030;-64
2021/03/27 14:13:27;;;;;;;0.80;0.30;;;12.70;39.30;;;;;;5009355;28;20022;-64
2021/03/27 14:16:13;;;;;;;1.95;0.40;;;12.70;38.80;;;;;;5003089;28;20454;-64
2021/03/27 14:18:47;;;;;;;1.27;0.43;;;12.70;38.60;;;;;;5009977;28;20026;-64
2021/03/27 14:21:35;;;;;;;0.80;0.40;;;12.80;39.20;;;;;;5007364;28;20325;-64
2021/03/27 14:24:21;;;;;;;0.85;0.30;;;12.70;39.60;;;;;;5012084;28;20030;-64
2021/03/27 14:27:01;;;;;;;1.83;0.57;;;12.70;37.60;;;;;;5010797;28;20033;-64
2021/03/27 14:29:50;;;;;;;1.30;0.55;;;12.70;37.40;;;;;;5011045;28;20030;-64
2021/03/27 14:32:25;;;;;;;2.40;0.40;;;12.70;37.90;;;;;;4998502;28;20078;-64
2021/03/27 14:35:14;;;;;;;;;;;12.70;38.50;;;;;;4998617;28;20048;-64
2021/03/27 14:37:52;;;;;;;0.90;0.30;;;12.70;37.50;;;;;;5003756;28;19917;-64